Hatton, Missouri
Current Conditions -  °F | °C
As of 3:25 PM on Sunday 21 Dec 2014 (Local Time) from KCOU Reporting Station
Overcast Overcast  
Wind Chill: 36°   Ceiling: 1400
Heat Index: 43°   Visibility: 10mi
Dew Point: 38°   Wind: 14mph
Humidity: 82%   Direction: 150°SSE
Pressure: 29.94"   Gusts: NA
Location:  39.0046°N, 91.853°W
Report Text: KCOU 212125Z 15012KT 10SM OVC014 06/03 A2994 RMK AO2 T00610033
Loading
Personal Weather Stations






























Interactive Weather Map New forecast layout! Learn more

10-Day Weather Forecast

Advertisements
Track Severe Weather on mobile